Flight Track Log - Related Links

Times and Time Zones

All times are in EDT time to prevent confusion due to time zone crossing. See the ASA558 flight status page for this flight to view local times or setup timezone preferences in your user account.

Time Position Orientation Groundspeed Altitude Reporting Facility
EDT Latitude Longitude Course Direction KTS MPH feet Rate Location/Type
Tue 04:02:46 PM 47.4569 -122.3083 360° North 142 163 1,200  Level Seattle Center
Tue 04:04:00 PM 47.5108 -122.3086 360° North 178 205 3,700 2,622 Climbing Seattle Center
Tue 04:05:01 PM 47.5700 -122.3344 344° North 203 234 7,100 3,197 Climbing Seattle Center
Tue 04:06:02 PM 47.5925 -122.4047 295° West 230 265 10,200 2,066 Climbing Seattle Center
Tue 04:07:03 PM 47.5256 -122.4036 179° South 316 364 11,300 2,459 Climbing Seattle Center
Tue 04:08:04 PM 47.4153 -122.3511 162° South 349 402 15,200 3,148 Climbing Seattle Center
Tue 04:09:05 PM 47.3150 -122.3067 163° South 376 433 17,700 2,705 Climbing Seattle Center
Tue 04:10:06 PM 47.2072 -122.2589 163° South 403 464 20,700 2,557 Climbing Seattle Center
Tue 04:11:07 PM 47.0922 -122.2056 162° South 435 501 22,900 1,967 Climbing Seattle Center
Tue 04:12:08 PM 46.9689 -122.1506 163° South 462 532 24,700 1,869 Climbing Seattle Center
Tue 04:13:09 PM 46.8325 -122.1047 167° South 489 563 26,700 1,983 Climbing Seattle Center
Tue 04:14:09 PM 46.6947 -122.0556 166° South 510 587 28,700 1,983 Climbing Seattle Center
Tue 04:15:10 PM 46.5517 -122.0089 167° South 526 605 30,700 1,967 Climbing Seattle Center
Tue 04:16:11 PM 46.3778 -121.9506 167° South 538 619 32,700 1,967 Climbing Seattle Center
Tue 04:17:12 PM 46.2306 -121.9008 167° South 546 628 34,700 1,967 Climbing Seattle Center
Tue 04:18:13 PM 46.0828 -121.8497 167° South 540 621 36,700 1,820 Climbing Seattle Center
Tue 04:19:14 PM 45.9414 -121.8033 167° South 525 604 38,400 1,131 Climbing Seattle Center
Tue 04:20:15 PM 45.8028 -121.7531 166° South 518 596 39,000 295 Climbing Seattle Center
Tue 04:21:16 PM 45.6583 -121.7083 168° South 529 609 39,000  Level Seattle Center
Tue 04:22:17 PM 45.5144 -121.6622 167° South 531 611 39,000  Level Seattle Center
Tue 04:23:18 PM 45.3722 -121.6164 167° South 529 609 39,000  Level Seattle Center
Tue 04:24:19 PM 45.2317 -121.5708 167° South 524 603 39,000  Level Seattle Center
Tue 04:25:20 PM 45.0908 -121.5244 167° South 522 601 39,000  Level Seattle Center
Tue 04:26:21 PM 44.9544 -121.4797 167° South 516 594 39,000  Level Seattle Center
Tue 04:27:22 PM 44.7861 -121.4264 167° South 517 595 39,000  Level Seattle Center
Tue 04:28:23 PM 44.6467 -121.3822 167° South 519 597 39,000  Level Seattle Center
Tue 04:29:24 PM 44.5017 -121.3361 167° South 518 596 39,000  Level Seattle Center
Tue 04:30:25 PM 44.3617 -121.2919 167° South 520 598 39,000  Level Seattle Center
Tue 04:31:26 PM 44.2258 -121.2503 168° South 520 598 39,000  Level Seattle Center
Tue 04:32:27 PM 44.0858 -121.2100 168° South 519 597 39,000  Level Seattle Center
Tue 04:33:28 PM 43.9447 -121.1639 167° South 523 602 39,000  Level Seattle Center
Tue 04:34:29 PM 43.8042 -121.1192 167° South 521 600 39,000  Level Seattle Center
Tue 04:35:30 PM 43.6642 -121.0761 167° South 518 596 39,000  Level Seattle Center
Tue 04:36:31 PM 43.5217 -121.0342 168° South 519 597 39,000  Level Seattle Center
Tue 04:37:32 PM 43.3792 -120.9928 168° South 520 598 39,000  Level Seattle Center
Tue 04:38:33 PM 43.2347 -120.9522 168° South 525 604 39,000  Level Seattle Center
Tue 04:39:34 PM 43.0642 -120.9069 169° South 522 601 39,000  Level Seattle Center
Tue 04:40:35 PM 42.9197 -120.8697 169° South 524 603 39,000  Level Seattle Center
Tue 04:41:36 PM 42.7797 -120.8353 170° South 511 588 39,000  Level Seattle Center
Tue 04:42:37 PM 42.6403 -120.8025 170° South 508 585 39,000  Level Seattle Center
Tue 04:43:38 PM 42.5000 -120.7683 170° South 508 585 39,000  Level Seattle Center
Tue 04:44:39 PM 42.3614 -120.7356 170° South 505 581 39,000  Level Seattle Center
Tue 04:45:40 PM 42.2231 -120.7017 170° South 503 579 39,000  Level Seattle Center
Tue 04:46:40 PM 42.0856 -120.6678 170° South 501 577 39,000  Level Seattle Center
Tue 04:47:41 PM 41.9475 -120.6361 170° South 502 578 39,000  Level Seattle Center
Tue 04:48:42 PM 41.8094 -120.6033 170° South 501 577 39,000  Level Seattle Center
Tue 04:49:43 PM 41.6742 -120.5706 170° South 495 570 39,000  Level Seattle Center
Tue 04:50:44 PM 41.5397 -120.5389 170° South 490 564 39,000  Level Seattle Center
Tue 04:51:45 PM 41.4067 -120.5072 170° South 486 559 39,000  Level Seattle Center
Tue 04:52:46 PM 41.2739 -120.4781 171° South 484 557 39,000  Level Seattle Center
Tue 04:53:47 PM 41.1417 -120.4467 170° South 481 554 39,000  Level Seattle Center
Tue 04:54:47 PM 41.0100 -120.4164 170° South 479 551 39,000  Level Seattle Center
Tue 04:55:48 PM 40.8792 -120.3758 167° South 482 555 39,000  Level Seattle Center
Tue 04:56:49 PM 40.7475 -120.3372 167° South 483 556 39,000  Level Seattle Center
Tue 04:57:46 PM 40.6172 -120.2953 166° South 483 556 39,000  Level Oakland Center
Tue 04:57:50 PM 40.6172 -120.2953 166° South 482 555 39,000  Level Seattle Center
Tue 04:58:47 PM 40.4653 -120.2483 167° South 481 554 39,000  Level Oakland Center
Tue 04:59:52 PM 40.3353 -120.2094 167° South 480 552 39,000  Level Seattle Center
Tue 05:00:50 PM 40.2053 -120.1706 167° South 478 550 39,000  Level Oakland Center
Tue 05:01:51 PM 40.0756 -120.1308 167° South 479 551 39,000  Level Oakland Center
Tue 05:02:52 PM 39.9472 -120.0914 167° South 478 550 39,000  Level Oakland Center
Tue 05:03:53 PM 39.8192 -120.0536 167° South 475 547 39,000  Level Oakland Center
Tue 05:04:55 PM 39.6922 -120.0144 167° South 471 542 39,000  Level Oakland Center
Tue 05:05:56 PM 39.5661 -119.9761 167° South 467 537 39,000  Level Oakland Center
Tue 05:06:57 PM 39.4392 -119.9392 167° South 469 540 39,000  Level Oakland Center
Tue 05:07:58 PM 39.2836 -119.8933 167° South 478 550 39,000  Level Oakland Center
Tue 05:09:00 PM 39.1561 -119.8553 167° South 474 545 39,000  Level Oakland Center
Tue 05:10:01 PM 39.0300 -119.8183 167° South 469 540 39,000  Level Oakland Center
Tue 05:11:02 PM 38.9061 -119.7828 167° South 461 531 39,000  Level Oakland Center
Tue 05:12:03 PM 38.7844 -119.7461 167° South 453 521 39,000  Level Oakland Center
Tue 05:13:05 PM 38.6600 -119.7100 167° South 457 526 39,000  Level Oakland Center
Tue 05:14:06 PM 38.5342 -119.6733 167° South 461 531 39,000  Level Oakland Center
Tue 05:15:07 PM 38.3983 -119.6344 167° South 456 525 39,000  Level Oakland Center
Tue 05:16:09 PM 38.2733 -119.5975 167° South 457 526 39,000  Level Oakland Center
Tue 05:17:10 PM 38.1494 -119.5633 168° South 454 522 39,000  Level Oakland Center
Tue 05:18:11 PM 38.0292 -119.5256 166° South 447 514 39,000  Level Oakland Center
Tue 05:19:13 PM 37.9056 -119.4911 168° South 450 518 39,000  Level Oakland Center
Tue 05:20:14 PM 37.7775 -119.4594 169° South 459 528 39,000  Level Oakland Center
Tue 05:21:15 PM 37.6550 -119.4256 168° South 452 520 39,000  Level Oakland Center
Tue 05:22:48 PM 37.4586 -119.3678 167° South 451 519 39,000  Level Los Angeles Center
Tue 05:23:18 PM 37.4017 -119.3539 169° South 454 522 39,000  Level Oakland Center
Tue 05:24:19 PM 37.2775 -119.3189 167° South 459 528 39,000  Level Oakland Center
Tue 05:25:21 PM 37.1292 -119.2775 167° South 455 524 39,000  Level Oakland Center
Tue 05:26:22 PM 37.0058 -119.2439 168° South 454 522 39,000  Level Oakland Center
Tue 05:27:23 PM 36.8831 -119.2097 167° South 450 518 39,000  Level Oakland Center
Tue 05:28:25 PM 36.7617 -119.1775 168° South 444 511 39,000  Level Oakland Center
Tue 05:29:26 PM 36.6400 -119.1436 167° South 447 514 39,000  Level Oakland Center
Tue 05:30:27 PM 36.5178 -119.1103 168° South 447 514 39,000  Level Oakland Center
Tue 05:31:29 PM 36.3958 -119.0764 167° South 449 517 39,000  Level Oakland Center
Tue 05:32:30 PM 36.2744 -119.0450 168° South 444 511 39,000  Level Oakland Center
Tue 05:33:31 PM 36.1533 -119.0122 168° South 444 511 39,000  Level Oakland Center
Tue 05:34:33 PM 36.0333 -118.9722 165° South 444 511 39,000  Level Oakland Center
Tue 05:35:34 PM 35.8903 -118.9211 164° South 444 511 39,000  Level Oakland Center
Tue 05:36:35 PM 35.7711 -118.8797 164° South 444 511 39,000  Level Oakland Center
Tue 05:37:37 PM 35.6508 -118.8375 164° South 445 512 39,000  Level Oakland Center
Tue 05:38:20 PM 35.5806 -118.8131 164° South 441 507 39,000  Level Los Angeles Center
Tue 05:39:34 PM 35.4614 -118.7714 164° South 442 509 39,000 -1,095 Level Los Angeles Center
Tue 05:40:37 PM 35.2936 -118.7144 165° South 446 513 36,500 -2,352 Descending Los Angeles Center
Tue 05:41:39 PM 35.1758 -118.6722 164° South 443 510 34,100 -2,129 Descending Los Angeles Center
Tue 05:42:41 PM 35.0564 -118.6325 165° South 442 509 32,100 -1,984 Descending Los Angeles Center
Tue 05:43:43 PM 34.9658 -118.5483 143° Southeast 421 484 30,000 -2,081 Descending Los Angeles Center
Tue 05:44:45 PM 34.8819 -118.4275 130° Southeast 413 475 27,800 -2,032 Descending Los Angeles Center
Tue 05:45:47 PM 34.8111 -118.3242 130° Southeast 402 463 25,800 -1,839 Descending Los Angeles Center
Tue 05:46:49 PM 34.7422 -118.2242 130° Southeast 391 450 24,000 -864 Descending Los Angeles Center
Tue 05:47:52 PM 34.6742 -118.1267 130° Southeast 382 440 24,000 -672 Level Los Angeles Center
Tue 05:48:54 PM 34.6133 -118.0250 126° Southeast 380 437 22,600 -968 Descending Los Angeles Center
Tue 05:49:56 PM 34.5525 -117.8944 119° Southeast 374 430 22,000 -290 Descending Los Angeles Center
Tue 05:50:58 PM 34.5008 -117.7800 119° Southeast 388 447 22,000  Level Los Angeles Center
Tue 05:52:00 PM 34.4456 -117.6603 119° Southeast 407 468 22,000 -677 Level Los Angeles Center
Tue 05:53:02 PM 34.3906 -117.5406 119° Southeast 410 472 20,600 -1,742 Descending Los Angeles Center
Tue 05:54:04 PM 34.3319 -117.4131 119° Southeast 398 458 18,400 -1,742 Descending Los Angeles Center
Tue 05:55:06 PM 34.2794 -117.2997 119° Southeast 390 449 17,000 -1,258 Descending Los Angeles Center
Tue 05:56:08 PM 34.2294 -117.1917 119° Southeast 372 428 15,800 -1,452 Descending Los Angeles Center
Tue 05:57:10 PM 34.1736 -117.0733 120° Southeast 371 427 14,000 -912 Descending Los Angeles Center
Tue 05:58:13 PM 34.1192 -116.9553 119° Southeast 355 409 13,900 96 Descending Los Angeles Center
Tue 05:59:15 PM 34.0767 -116.8650 120° Southeast 310 357 14,200 145 Climbing Los Angeles Center
Tue 06:00:17 PM 34.0356 -116.7789 120° Southeast 296 341 14,200 -532 Level Los Angeles Center
Tue 06:01:19 PM 33.9947 -116.6925 120° Southeast 295 339 13,100 -1,065 Descending Los Angeles Center
Tue 06:02:21 PM 33.9556 -116.6078 119° Southeast 289 333 12,000 -1,839 Descending Los Angeles Center
Tue 06:03:23 PM 33.9189 -116.5275 119° Southeast 278 320 9,300 -1,452 Descending Los Angeles Center
Tue 06:04:25 PM 33.8828 -116.4667 126° Southeast 228 262 9,000 -1,478 Descending Los Angeles Center
Tue 06:06:50 PM 33.7833 -116.4000 151° Southeast 157 181 4,200 -1,902 Descending Southern California TRACON
Tue 06:07:50 PM 33.7667 -116.4500 248° West 159 183 2,500 -1,600 Descending Southern California TRACON
Tue 06:08:50 PM 33.8000 -116.4833 320° Northwest 143 165 1,000 -1,500 Descending Southern California TRACON
Tue 06:10:00 PM 33.8167 -116.5000 239° Southwest  Level FlightAware Approximate
Tue 06:17:00 PM 33.8297 -116.5067 239° Southwest  Level Estimated
Tue 06:18:00 PM 33.8297 -116.5067 239° Southwest  Level Estimated

Login

Don't have an account? Register now (free) for customized features, flight alerts, and more!